sensor_id;sensor_type;location;lat;lon;timestamp;pressure;altitude;pressure_sealevel;temperature;humidity
72262;BME280;60173;52.112;8.648;2023-08-12T00:01:44;100709.19;;;20.05;84.28
72262;BME280;60173;52.112;8.648;2023-08-12T00:04:10;100713.19;;;20.08;83.92
72262;BME280;60173;52.112;8.648;2023-08-12T00:06:36;100704.53;;;20.09;83.79
72262;BME280;60173;52.112;8.648;2023-08-12T00:09:05;100705.34;;;20.10;84.06
72262;BME280;60173;52.112;8.648;2023-08-12T00:11:31;100719.13;;;20.10;83.78
72262;BME280;60173;52.112;8.648;2023-08-12T00:13:57;100709.59;;;20.07;84.32
72262;BME280;60173;52.112;8.648;2023-08-12T00:16:24;100709.72;;;20.11;84.03
72262;BME280;60173;52.112;8.648;2023-08-12T00:18:50;100718.06;;;20.15;83.66
72262;BME280;60173;52.112;8.648;2023-08-12T00:21:17;100714.94;;;20.16;83.67
72262;BME280;60173;52.112;8.648;2023-08-12T00:23:43;100711.56;;;20.07;83.73
72262;BME280;60173;52.112;8.648;2023-08-12T00:26:10;100710.97;;;20.14;83.86
72262;BME280;60173;52.112;8.648;2023-08-12T00:28:37;100719.94;;;19.95;85.06
72262;BME280;60173;52.112;8.648;2023-08-12T00:31:03;100736.47;;;19.95;85.77
72262;BME280;60173;52.112;8.648;2023-08-12T00:33:29;100763.38;;;19.70;86.64
72262;BME280;60173;52.112;8.648;2023-08-12T00:35:56;100742.84;;;19.39;88.34
72262;BME280;60173;52.112;8.648;2023-08-12T00:38:22;100763.56;;;19.49;88.22
72262;BME280;60173;52.112;8.648;2023-08-12T00:40:49;100770.06;;;19.56;87.79
72262;BME280;60173;52.112;8.648;2023-08-12T00:43:15;100765.34;;;19.57;86.82
72262;BME280;60173;52.112;8.648;2023-08-12T00:45:42;100743.53;;;19.36;88.12
72262;BME280;60173;52.112;8.648;2023-08-12T00:48:09;100755.47;;;19.68;86.86
72262;BME280;60173;52.112;8.648;2023-08-12T00:50:40;100761.09;;;19.88;85.56
72262;BME280;60173;52.112;8.648;2023-08-12T00:53:07;100761.72;;;19.97;84.91
72262;BME280;60173;52.112;8.648;2023-08-12T00:55:34;100760.31;;;20.03;84.23
72262;BME280;60173;52.112;8.648;2023-08-12T00:58:02;100749.84;;;19.64;86.09
72262;BME280;60173;52.112;8.648;2023-08-12T01:00:31;100751.22;;;19.86;85.53
72262;BME280;60173;52.112;8.648;2023-08-12T01:02:57;100753.72;;;19.92;84.56
72262;BME280;60173;52.112;8.648;2023-08-12T01:05:24;100754.22;;;19.81;84.92
72262;BME280;60173;52.112;8.648;2023-08-12T01:07:50;100760.66;;;19.85;85.05
72262;BME280;60173;52.112;8.648;2023-08-12T01:10:17;100765.78;;;19.71;85.70
72262;BME280;60173;52.112;8.648;2023-08-12T01:12:50;100760.19;;;19.83;84.79
72262;BME280;60173;52.112;8.648;2023-08-12T01:15:20;100769.47;;;19.91;84.14
72262;BME280;60173;52.112;8.648;2023-08-12T01:17:47;100762.88;;;19.96;83.95
72262;BME280;60173;52.112;8.648;2023-08-12T01:20:15;100753.47;;;19.97;83.40
72262;BME280;60173;52.112;8.648;2023-08-12T01:22:43;100753.50;;;19.84;83.88
72262;BME280;60173;52.112;8.648;2023-08-12T01:25:10;100740.81;;;19.80;84.29
72262;BME280;60173;52.112;8.648;2023-08-12T01:27:37;100742.94;;;19.42;85.74
72262;BME280;60173;52.112;8.648;2023-08-12T01:30:05;100741.44;;;19.45;85.74
72262;BME280;60173;52.112;8.648;2023-08-12T01:35:09;100729.91;;;19.27;87.86
72262;BME280;60173;52.112;8.648;2023-08-12T01:37:37;100720.34;;;19.37;88.06
72262;BME280;60173;52.112;8.648;2023-08-12T01:40:06;100717.50;;;19.33;88.56
72262;BME280;60173;52.112;8.648;2023-08-12T01:42:33;100717.13;;;19.35;89.42
72262;BME280;60173;52.112;8.648;2023-08-12T01:45:01;100723.00;;;19.61;88.27
72262;BME280;60173;52.112;8.648;2023-08-12T01:47:28;100717.78;;;19.72;87.75
72262;BME280;60173;52.112;8.648;2023-08-12T01:49:55;100727.03;;;19.80;87.85
72262;BME280;60173;52.112;8.648;2023-08-12T01:52:22;100714.69;;;19.90;88.09
72262;BME280;60173;52.112;8.648;2023-08-12T01:54:48;100705.88;;;19.68;89.71
72262;BME280;60173;52.112;8.648;2023-08-12T01:57:14;100709.16;;;19.74;90.94
72262;BME280;60173;52.112;8.648;2023-08-12T01:59:41;100713.25;;;19.52;92.16
72262;BME280;60173;52.112;8.648;2023-08-12T02:02:07;100714.13;;;19.68;92.11
72262;BME280;60173;52.112;8.648;2023-08-12T02:04:34;100714.84;;;19.81;91.57
72262;BME280;60173;52.112;8.648;2023-08-12T02:07:00;100716.19;;;19.71;92.19
72262;BME280;60173;52.112;8.648;2023-08-12T02:09:26;100719.66;;;19.68;92.54
72262;BME280;60173;52.112;8.648;2023-08-12T02:11:53;100723.78;;;19.62;93.92
72262;BME280;60173;52.112;8.648;2023-08-12T02:14:19;100732.84;;;19.62;94.43
72262;BME280;60173;52.112;8.648;2023-08-12T02:16:45;100739.13;;;19.47;96.02
72262;BME280;60173;52.112;8.648;2023-08-12T02:19:12;100747.09;;;19.36;97.15
72262;BME280;60173;52.112;8.648;2023-08-12T02:21:38;100752.22;;;19.10;98.21
72262;BME280;60173;52.112;8.648;2023-08-12T02:24:05;100743.47;;;19.20;98.74
72262;BME280;60173;52.112;8.648;2023-08-12T02:26:31;100748.41;;;19.27;98.38
72262;BME280;60173;52.112;8.648;2023-08-12T02:28:58;100744.81;;;19.26;98.27
72262;BME280;60173;52.112;8.648;2023-08-12T02:31:24;100745.72;;;19.30;97.45
72262;BME280;60173;52.112;8.648;2023-08-12T02:33:51;100745.03;;;19.33;97.36
72262;BME280;60173;52.112;8.648;2023-08-12T02:36:17;100747.69;;;19.30;97.53
72262;BME280;60173;52.112;8.648;2023-08-12T02:38:43;100737.91;;;19.32;97.75
72262;BME280;60173;52.112;8.648;2023-08-12T02:41:10;100739.84;;;19.32;97.55
72262;BME280;60173;52.112;8.648;2023-08-12T02:43:36;100734.47;;;19.35;97.45
72262;BME280;60173;52.112;8.648;2023-08-12T02:46:03;100725.69;;;19.46;97.31
72262;BME280;60173;52.112;8.648;2023-08-12T02:48:29;100731.03;;;19.38;97.54
72262;BME280;60173;52.112;8.648;2023-08-12T02:50:56;100733.81;;;19.26;98.71
72262;BME280;60173;52.112;8.648;2023-08-12T02:53:22;100730.81;;;19.31;98.69
72262;BME280;60173;52.112;8.648;2023-08-12T02:55:48;100734.31;;;19.16;99.71
72262;BME280;60173;52.112;8.648;2023-08-12T02:58:15;100742.91;;;19.14;100.00
72262;BME280;60173;52.112;8.648;2023-08-12T03:00:42;100740.94;;;19.27;100.00
72262;BME280;60173;52.112;8.648;2023-08-12T03:03:08;100736.53;;;19.38;99.46
72262;BME280;60173;52.112;8.648;2023-08-12T03:05:35;100742.03;;;19.38;98.93
72262;BME280;60173;52.112;8.648;2023-08-12T03:08:01;100732.06;;;19.34;99.01
72262;BME280;60173;52.112;8.648;2023-08-12T03:10:28;100731.44;;;19.40;99.20
72262;BME280;60173;52.112;8.648;2023-08-12T03:12:54;100723.50;;;19.51;98.83
72262;BME280;60173;52.112;8.648;2023-08-12T03:15:21;100726.06;;;19.44;99.38
72262;BME280;60173;52.112;8.648;2023-08-12T03:17:47;100724.91;;;19.45;99.50
72262;BME280;60173;52.112;8.648;2023-08-12T03:20:14;100718.69;;;19.48;99.45
72262;BME280;60173;52.112;8.648;2023-08-12T03:22:40;100709.13;;;19.30;100.00
72262;BME280;60173;52.112;8.648;2023-08-12T03:25:07;100726.50;;;19.18;100.00
72262;BME280;60173;52.112;8.648;2023-08-12T03:27:33;100729.00;;;19.23;100.00
72262;BME280;60173;52.112;8.648;2023-08-12T03:30:00;100729.22;;;19.30;100.00
72262;BME280;60173;52.112;8.648;2023-08-12T03:32:26;100730.81;;;19.31;100.00
72262;BME280;60173;52.112;8.648;2023-08-12T03:34:53;100727.97;;;19.28;100.00
72262;BME280;60173;52.112;8.648;2023-08-12T03:37:19;100727.19;;;19.15;100.00
72262;BME280;60173;52.112;8.648;2023-08-12T03:39:45;100724.00;;;19.13;100.00
72262;BME280;60173;52.112;8.648;2023-08-12T03:42:12;100726.53;;;19.06;100.00
72262;BME280;60173;52.112;8.648;2023-08-12T03:44:38;100720.94;;;19.02;100.00
72262;BME280;60173;52.112;8.648;2023-08-12T03:47:04;100724.56;;;19.06;100.00
72262;BME280;60173;52.112;8.648;2023-08-12T03:49:31;100726.38;;;19.14;100.00
72262;BME280;60173;52.112;8.648;2023-08-12T03:51:57;100723.06;;;19.09;100.00
72262;BME280;60173;52.112;8.648;2023-08-12T03:54:24;100723.06;;;19.09;100.00
72262;BME280;60173;52.112;8.648;2023-08-12T03:56:50;100727.88;;;19.12;100.00
72262;BME280;60173;52.112;8.648;2023-08-12T03:59:16;100724.00;;;19.13;100.00
72262;BME280;60173;52.112;8.648;2023-08-12T04:01:43;100717.97;;;19.23;100.00
72262;BME280;60173;52.112;8.648;2023-08-12T04:04:09;100719.34;;;19.29;100.00
72262;BME280;60173;52.112;8.648;2023-08-12T04:06:39;100717.50;;;19.33;100.00
72262;BME280;60173;52.112;8.648;2023-08-12T04:09:06;100722.09;;;19.29;100.00
72262;BME280;60173;52.112;8.648;2023-08-12T04:11:32;100708.69;;;19.28;100.00
72262;BME280;60173;52.112;8.648;2023-08-12T04:13:58;100711.34;;;19.24;100.00
72262;BME280;60173;52.112;8.648;2023-08-12T04:16:25;100703.78;;;19.21;100.00
72262;BME280;60173;52.112;8.648;2023-08-12T04:18:51;100708.88;;;19.07;100.00
72262;BME280;60173;52.112;8.648;2023-08-12T04:21:17;100715.53;;;19.06;100.00
72262;BME280;60173;52.112;8.648;2023-08-12T04:23:44;100706.88;;;19.19;100.00
72262;BME280;60173;52.112;8.648;2023-08-12T04:26:10;100705.78;;;19.36;100.00
72262;BME280;60173;52.112;8.648;2023-08-12T04:28:36;100708.00;;;19.47;100.00
72262;BME280;60173;52.112;8.648;2023-08-12T04:31:06;100702.94;;;19.49;100.00
72262;BME280;60173;52.112;8.648;2023-08-12T04:33:32;100716.03;;;19.52;100.00
72262;BME280;60173;52.112;8.648;2023-08-12T04:35:59;100712.13;;;19.53;100.00
72262;BME280;60173;52.112;8.648;2023-08-12T04:38:25;100714.19;;;19.56;100.00
72262;BME280;60173;52.112;8.648;2023-08-12T04:40:53;100700.59;;;19.63;100.00
72262;BME280;60173;52.112;8.648;2023-08-12T04:43:20;100691.63;;;19.66;100.00
72262;BME280;60173;52.112;8.648;2023-08-12T04:45:46;100701.88;;;19.66;100.00
72262;BME280;60173;52.112;8.648;2023-08-12T04:48:13;100700.84;;;19.58;100.00
72262;BME280;60173;52.112;8.648;2023-08-12T04:50:43;100693.19;;;19.51;100.00
72262;BME280;60173;52.112;8.648;2023-08-12T04:53:10;100687.50;;;19.60;100.00
72262;BME280;60173;52.112;8.648;2023-08-12T04:55:36;100689.47;;;19.59;100.00
72262;BME280;60173;52.112;8.648;2023-08-12T04:58:03;100684.53;;;19.65;100.00
72262;BME280;60173;52.112;8.648;2023-08-12T05:00:29;100680.34;;;19.71;100.00
72262;BME280;60173;52.112;8.648;2023-08-12T05:02:56;100677.16;;;19.69;100.00
72262;BME280;60173;52.112;8.648;2023-08-12T05:05:23;100679.72;;;19.62;100.00
72262;BME280;60173;52.112;8.648;2023-08-12T05:07:49;100672.16;;;19.59;100.00
72262;BME280;60173;52.112;8.648;2023-08-12T05:10:16;100661.00;;;19.68;100.00
72262;BME280;60173;52.112;8.648;2023-08-12T05:12:43;100666.13;;;19.69;100.00
72262;BME280;60173;52.112;8.648;2023-08-12T05:15:10;100656.63;;;19.82;100.00
72262;BME280;60173;52.112;8.648;2023-08-12T05:17:37;100655.72;;;19.78;100.00
72262;BME280;60173;52.112;8.648;2023-08-12T05:20:04;100652.06;;;19.90;100.00
72262;BME280;60173;52.112;8.648;2023-08-12T05:22:31;100656.63;;;19.98;100.00
72262;BME280;60173;52.112;8.648;2023-08-12T05:24:57;100658.75;;;20.05;100.00
72262;BME280;60173;52.112;8.648;2023-08-12T05:27:24;100655.00;;;20.13;100.00
72262;BME280;60173;52.112;8.648;2023-08-12T05:29:50;100653.41;;;20.12;99.91
72262;BME280;60173;52.112;8.648;2023-08-12T05:32:17;100651.81;;;19.95;100.00
72262;BME280;60173;52.112;8.648;2023-08-12T05:34:43;100647.03;;;19.92;100.00
72262;BME280;60173;52.112;8.648;2023-08-12T05:37:09;100647.09;;;19.96;100.00
72262;BME280;60173;52.112;8.648;2023-08-12T05:39:36;100643.47;;;19.92;100.00
72262;BME280;60173;52.112;8.648;2023-08-12T05:42:02;100629.94;;;20.02;100.00
72262;BME280;60173;52.112;8.648;2023-08-12T05:44:28;100636.00;;;19.92;100.00
72262;BME280;60173;52.112;8.648;2023-08-12T05:46:55;100637.25;;;19.79;100.00
72262;BME280;60173;52.112;8.648;2023-08-12T05:49:21;100638.22;;;19.86;100.00
72262;BME280;60173;52.112;8.648;2023-08-12T05:51:48;100636.72;;;19.89;100.00
72262;BME280;60173;52.112;8.648;2023-08-12T05:54:14;100640.44;;;19.97;100.00
72262;BME280;60173;52.112;8.648;2023-08-12T05:56:40;100630.56;;;20.12;99.80
72262;BME280;60173;52.112;8.648;2023-08-12T05:59:07;100630.47;;;20.08;99.56
72262;BME280;60173;52.112;8.648;2023-08-12T06:01:33;100621.56;;;19.99;99.63
72262;BME280;60173;52.112;8.648;2023-08-12T06:03:59;100620.78;;;19.98;100.00
72262;BME280;60173;52.112;8.648;2023-08-12T06:06:26;100627.00;;;20.11;100.00
72262;BME280;60173;52.112;8.648;2023-08-12T06:08:52;100617.94;;;20.11;99.11
72262;BME280;60173;52.112;8.648;2023-08-12T06:11:19;100616.31;;;20.09;99.79
72262;BME280;60173;52.112;8.648;2023-08-12T06:13:45;100617.97;;;20.30;99.00
72262;BME280;60173;52.112;8.648;2023-08-12T06:16:11;100622.28;;;20.47;97.82
72262;BME280;60173;52.112;8.648;2023-08-12T06:18:38;100622.75;;;20.68;96.62
72262;BME280;60173;52.112;8.648;2023-08-12T06:21:04;100622.63;;;20.81;95.51
72262;BME280;60173;52.112;8.648;2023-08-12T06:23:31;100618.56;;;21.17;94.20
72262;BME280;60173;52.112;8.648;2023-08-12T06:25:57;100619.69;;;21.55;91.28
72262;BME280;60173;52.112;8.648;2023-08-12T06:28:23;100612.69;;;21.38;90.97
72262;BME280;60173;52.112;8.648;2023-08-12T06:30:50;100610.50;;;21.47;90.96
72262;BME280;60173;52.112;8.648;2023-08-12T06:33:16;100600.22;;;21.48;91.14
72262;BME280;60173;52.112;8.648;2023-08-12T06:35:44;100599.53;;;21.54;91.28
72262;BME280;60173;52.112;8.648;2023-08-12T06:38:12;100590.72;;;21.45;91.27
72262;BME280;60173;52.112;8.648;2023-08-12T06:40:38;100592.69;;;21.44;91.50
72262;BME280;60173;52.112;8.648;2023-08-12T06:43:05;100592.44;;;21.53;91.28
72262;BME280;60173;52.112;8.648;2023-08-12T06:45:31;100585.44;;;21.59;91.21
72262;BME280;60173;52.112;8.648;2023-08-12T06:47:58;100571.31;;;21.64;90.61
72262;BME280;60173;52.112;8.648;2023-08-12T06:50:24;100564.50;;;21.85;90.74
72262;BME280;60173;52.112;8.648;2023-08-12T06:52:51;100575.66;;;22.19;89.19
72262;BME280;60173;52.112;8.648;2023-08-12T06:55:17;100573.09;;;22.63;87.14
72262;BME280;60173;52.112;8.648;2023-08-12T06:57:43;100571.53;;;22.99;85.19
72262;BME280;60173;52.112;8.648;2023-08-12T07:00:10;100572.38;;;23.04;83.78
72262;BME280;60173;52.112;8.648;2023-08-12T07:02:37;100562.97;;;22.78;84.46
72262;BME280;60173;52.112;8.648;2023-08-12T07:05:03;100562.97;;;22.78;84.39
72262;BME280;60173;52.112;8.648;2023-08-12T07:07:30;100564.53;;;22.75;84.18
72262;BME280;60173;52.112;8.648;2023-08-12T07:09:56;100566.44;;;23.01;83.04
72262;BME280;60173;52.112;8.648;2023-08-12T07:12:23;100564.41;;;23.39;82.15
72262;BME280;60173;52.112;8.648;2023-08-12T07:14:49;100569.84;;;23.29;81.72
72262;BME280;60173;52.112;8.648;2023-08-12T07:17:15;100569.13;;;23.35;81.12
72262;BME280;60173;52.112;8.648;2023-08-12T07:19:42;100569.81;;;23.69;79.72
72262;BME280;60173;52.112;8.648;2023-08-12T07:22:08;100565.00;;;23.63;80.64
72262;BME280;60173;52.112;8.648;2023-08-12T07:24:35;100558.66;;;23.62;81.32
72262;BME280;60173;52.112;8.648;2023-08-12T07:27:02;100569.88;;;23.77;80.21
72262;BME280;60173;52.112;8.648;2023-08-12T07:29:31;100575.28;;;23.59;81.59
72262;BME280;60173;52.112;8.648;2023-08-12T07:31:58;100581.84;;;23.02;83.49
72262;BME280;60173;52.112;8.648;2023-08-12T07:34:24;100577.78;;;22.93;84.43
72262;BME280;60173;52.112;8.648;2023-08-12T07:36:54;100583.63;;;22.84;84.58
72262;BME280;60173;52.112;8.648;2023-08-12T07:39:20;100587.50;;;23.13;83.20
72262;BME280;60173;52.112;8.648;2023-08-12T07:41:47;100582.75;;;23.14;82.37
72262;BME280;60173;52.112;8.648;2023-08-12T07:44:13;100577.50;;;23.01;82.59
72262;BME280;60173;52.112;8.648;2023-08-12T07:46:39;100577.25;;;22.80;83.73
72262;BME280;60173;52.112;8.648;2023-08-12T07:49:06;100575.53;;;22.68;85.51
72262;BME280;60173;52.112;8.648;2023-08-12T07:51:32;100577.44;;;22.64;86.08
72262;BME280;60173;52.112;8.648;2023-08-12T07:53:59;100579.75;;;22.59;86.66
72262;BME280;60173;52.112;8.648;2023-08-12T07:56:25;100569.69;;;22.77;85.14
72262;BME280;60173;52.112;8.648;2023-08-12T07:58:51;100569.59;;;23.00;83.44
72262;BME280;60173;52.112;8.648;2023-08-12T08:01:18;100572.41;;;23.48;82.30
72262;BME280;60173;52.112;8.648;2023-08-12T08:03:44;100573.13;;;23.89;80.83
72262;BME280;60173;52.112;8.648;2023-08-12T08:06:10;100572.59;;;24.35;78.10
72262;BME280;60173;52.112;8.648;2023-08-12T08:08:37;100567.47;;;24.38;78.56
72262;BME280;60173;52.112;8.648;2023-08-12T08:11:03;100571.97;;;24.64;78.13
72262;BME280;60173;52.112;8.648;2023-08-12T08:13:30;100563.34;;;24.94;76.98
72262;BME280;60173;52.112;8.648;2023-08-12T08:15:56;100563.31;;;24.87;76.93
72262;BME280;60173;52.112;8.648;2023-08-12T08:18:22;100558.97;;;24.93;76.31
72262;BME280;60173;52.112;8.648;2023-08-12T08:20:49;100558.53;;;24.91;76.03
72262;BME280;60173;52.112;8.648;2023-08-12T08:23:15;100555.75;;;24.80;76.92
72262;BME280;60173;52.112;8.648;2023-08-12T08:25:42;100554.97;;;24.79;76.31
72262;BME280;60173;52.112;8.648;2023-08-12T08:28:08;100554.47;;;24.49;77.42
72262;BME280;60173;52.112;8.648;2023-08-12T08:30:34;100544.41;;;24.26;77.34
72262;BME280;60173;52.112;8.648;2023-08-12T08:33:01;100541.56;;;24.12;78.20
72262;BME280;60173;52.112;8.648;2023-08-12T08:35:27;100530.38;;;23.94;78.47
72262;BME280;60173;52.112;8.648;2023-08-12T08:37:54;100532.63;;;23.26;82.13
72262;BME280;60173;52.112;8.648;2023-08-12T08:40:20;100522.25;;;23.16;82.59
72262;BME280;60173;52.112;8.648;2023-08-12T08:42:51;100530.00;;;22.99;84.80
72262;BME280;60173;52.112;8.648;2023-08-12T08:45:18;100531.38;;;23.20;84.11
72262;BME280;60173;52.112;8.648;2023-08-12T08:47:47;100527.88;;;23.23;85.26
72262;BME280;60173;52.112;8.648;2023-08-12T08:50:14;100520.41;;;23.34;84.45
72262;BME280;60173;52.112;8.648;2023-08-12T08:52:41;100530.84;;;23.52;82.70
72262;BME280;60173;52.112;8.648;2023-08-12T08:55:08;100528.50;;;23.54;83.60
72262;BME280;60173;52.112;8.648;2023-08-12T08:57:37;100531.44;;;23.27;84.38
72262;BME280;60173;52.112;8.648;2023-08-12T09:00:14;100532.25;;;23.28;84.62
72262;BME280;60173;52.112;8.648;2023-08-12T09:02:45;100529.03;;;23.26;85.24
72262;BME280;60173;52.112;8.648;2023-08-12T09:05:14;100533.78;;;23.25;84.90
72262;BME280;60173;52.112;8.648;2023-08-12T09:07:42;100540.06;;;23.15;85.52
72262;BME280;60173;52.112;8.648;2023-08-12T09:10:08;100533.94;;;22.95;86.89
72262;BME280;60173;52.112;8.648;2023-08-12T09:12:39;100529.66;;;23.05;86.89
72262;BME280;60173;52.112;8.648;2023-08-12T09:15:06;100539.69;;;23.20;87.26
72262;BME280;60173;52.112;8.648;2023-08-12T09:17:33;100546.09;;;23.28;87.01
72262;BME280;60173;52.112;8.648;2023-08-12T09:19:59;100550.97;;;23.41;86.46
72262;BME280;60173;52.112;8.648;2023-08-12T09:22:26;100542.81;;;23.63;85.30
72262;BME280;60173;52.112;8.648;2023-08-12T09:24:57;100534.47;;;24.18;83.54
72262;BME280;60173;52.112;8.648;2023-08-12T09:27:24;100535.44;;;24.51;82.75
72262;BME280;60173;52.112;8.648;2023-08-12T09:29:55;100530.75;;;24.80;81.61
72262;BME280;60173;52.112;8.648;2023-08-12T09:32:22;100529.22;;;25.04;80.50
72262;BME280;60173;52.112;8.648;2023-08-12T09:34:53;100518.94;;;25.19;79.54
72262;BME280;60173;52.112;8.648;2023-08-12T09:37:21;100508.94;;;24.86;79.56
72262;BME280;60173;52.112;8.648;2023-08-12T09:39:48;100501.47;;;25.25;78.60
72262;BME280;60173;52.112;8.648;2023-08-12T09:42:16;100496.69;;;25.58;76.83
72262;BME280;60173;52.112;8.648;2023-08-12T09:44:43;100476.75;;;25.92;73.99
72262;BME280;60173;52.112;8.648;2023-08-12T09:47:10;100496.56;;;26.08;74.07
72262;BME280;60173;52.112;8.648;2023-08-12T09:49:38;100492.22;;;26.07;74.53
72262;BME280;60173;52.112;8.648;2023-08-12T09:52:05;100478.97;;;26.36;74.38
72262;BME280;60173;52.112;8.648;2023-08-12T09:54:32;100464.81;;;26.76;72.58
72262;BME280;60173;52.112;8.648;2023-08-12T09:57:00;100473.06;;;26.90;71.01
72262;BME280;60173;52.112;8.648;2023-08-12T09:59:31;100470.53;;;27.14;71.93
72262;BME280;60173;52.112;8.648;2023-08-12T10:01:58;100468.97;;;27.96;69.54
72262;BME280;60173;52.112;8.648;2023-08-12T10:04:31;100461.47;;;27.02;68.34
72262;BME280;60173;52.112;8.648;2023-08-12T10:07:00;100471.81;;;26.32;70.26
72262;BME280;60173;52.112;8.648;2023-08-12T10:09:27;100471.81;;;26.32;72.33
72262;BME280;60173;52.112;8.648;2023-08-12T10:11:53;100472.56;;;26.43;71.57
72262;BME280;60173;52.112;8.648;2023-08-12T10:14:21;100470.91;;;26.60;71.77
72262;BME280;60173;52.112;8.648;2023-08-12T10:16:47;100471.97;;;26.80;69.51
72262;BME280;60173;52.112;8.648;2023-08-12T10:19:15;100470.03;;;26.74;69.71
72262;BME280;60173;52.112;8.648;2023-08-12T10:21:43;100464.34;;;26.88;69.56
72262;BME280;60173;52.112;8.648;2023-08-12T10:24:10;100474.78;;;27.29;68.91
72262;BME280;60173;52.112;8.648;2023-08-12T10:26:37;100473.66;;;27.19;68.75
72262;BME280;60173;52.112;8.648;2023-08-12T10:29:04;100469.53;;;27.76;68.73
72262;BME280;60173;52.112;8.648;2023-08-12T10:31:30;100467.56;;;27.35;68.85
72262;BME280;60173;52.112;8.648;2023-08-12T10:33:57;100462.81;;;26.80;69.74
72262;BME280;60173;52.112;8.648;2023-08-12T10:36:26;100462.84;;;25.81;72.61
72262;BME280;60173;52.112;8.648;2023-08-12T10:38:53;100462.53;;;25.58;74.15
72262;BME280;60173;52.112;8.648;2023-08-12T10:41:22;100458.53;;;24.91;76.59
72262;BME280;60173;52.112;8.648;2023-08-12T10:44:01;100465.94;;;24.29;80.00
72262;BME280;60173;52.112;8.648;2023-08-12T10:46:31;100456.19;;;23.73;81.44
72262;BME280;60173;52.112;8.648;2023-08-12T10:57:03;100461.16;;;23.50;82.28
72262;BME280;60173;52.112;8.648;2023-08-12T11:05:08;100456.50;;;24.55;76.32
72262;BME280;60173;52.112;8.648;2023-08-12T11:07:48;100454.13;;;24.47;77.03
72262;BME280;60173;52.112;8.648;2023-08-12T11:10:20;100443.47;;;24.85;76.29
72262;BME280;60173;52.112;8.648;2023-08-12T11:15:40;100443.84;;;25.51;73.59
72262;BME280;60173;52.112;8.648;2023-08-12T11:20:34;100429.06;;;25.79;73.14
72262;BME280;60173;52.112;8.648;2023-08-12T11:23:02;100430.53;;;26.20;72.23
72262;BME280;60173;52.112;8.648;2023-08-12T11:25:29;100430.59;;;26.05;71.77
72262;BME280;60173;52.112;8.648;2023-08-12T11:27:57;100435.50;;;25.62;72.54
72262;BME280;60173;52.112;8.648;2023-08-12T11:30:25;100429.09;;;25.83;72.52
72262;BME280;60173;52.112;8.648;2023-08-12T11:32:53;100429.84;;;25.94;71.61
72262;BME280;60173;52.112;8.648;2023-08-12T11:35:21;100429.97;;;25.44;72.32
72262;BME280;60173;52.112;8.648;2023-08-12T11:37:50;100436.34;;;25.19;74.85
72262;BME280;60173;52.112;8.648;2023-08-12T11:40:17;100436.31;;;25.01;75.40
72262;BME280;60173;52.112;8.648;2023-08-12T11:42:46;100427.59;;;24.89;75.60
72262;BME280;60173;52.112;8.648;2023-08-12T11:45:17;100426.41;;;25.22;74.34
72262;BME280;60173;52.112;8.648;2023-08-12T11:47:44;100423.56;;;25.65;73.27
72262;BME280;60173;52.112;8.648;2023-08-12T11:50:12;100426.03;;;25.06;73.39
72262;BME280;60173;52.112;8.648;2023-08-12T11:52:39;100418.88;;;25.01;73.34
72262;BME280;60173;52.112;8.648;2023-08-12T11:55:07;100420.88;;;24.83;74.86
72262;BME280;60173;52.112;8.648;2023-08-12T11:57:33;100419.19;;;24.42;77.51
72262;BME280;60173;52.112;8.648;2023-08-12T12:00:00;100412.75;;;24.06;80.16
72262;BME280;60173;52.112;8.648;2023-08-12T12:02:26;100422.25;;;24.05;80.69
72262;BME280;60173;52.112;8.648;2023-08-12T12:04:53;100411.28;;;24.44;79.75
72262;BME280;60173;52.112;8.648;2023-08-12T12:07:21;100420.44;;;24.84;77.63
72262;BME280;60173;52.112;8.648;2023-08-12T12:09:52;100429.16;;;25.51;76.20
72262;BME280;60173;52.112;8.648;2023-08-12T12:12:24;100425.84;;;26.02;75.07
72262;BME280;60173;52.112;8.648;2023-08-12T12:14:55;100414.81;;;26.62;72.51
72262;BME280;60173;52.112;8.648;2023-08-12T12:17:22;100414.94;;;26.92;70.25
72262;BME280;60173;52.112;8.648;2023-08-12T12:19:56;100415.00;;;27.34;68.31
72262;BME280;60173;52.112;8.648;2023-08-12T12:22:28;100406.53;;;28.13;66.86
72262;BME280;60173;52.112;8.648;2023-08-12T12:24:57;100412.31;;;27.61;66.34
72262;BME280;60173;52.112;8.648;2023-08-12T12:27:24;100411.50;;;27.26;67.91
72262;BME280;60173;52.112;8.648;2023-08-12T12:29:50;100389.03;;;26.95;67.77
72262;BME280;60173;52.112;8.648;2023-08-12T12:32:20;100396.44;;;27.20;68.25
72262;BME280;60173;52.112;8.648;2023-08-12T12:34:47;100393.25;;;27.18;66.53
72262;BME280;60173;52.112;8.648;2023-08-12T12:37:13;100385.81;;;27.42;64.65
72262;BME280;60173;52.112;8.648;2023-08-12T12:39:40;100386.53;;;27.87;65.15
72262;BME280;60173;52.112;8.648;2023-08-12T12:42:07;100398.69;;;27.32;65.66
72262;BME280;60173;52.112;8.648;2023-08-12T12:44:33;100399.59;;;26.70;67.05
72262;BME280;60173;52.112;8.648;2023-08-12T12:46:59;100402.13;;;26.53;67.89
72262;BME280;60173;52.112;8.648;2023-08-12T12:49:26;100402.75;;;26.12;68.36
72262;BME280;60173;52.112;8.648;2023-08-12T12:51:52;100405.63;;;25.77;70.24
72262;BME280;60173;52.112;8.648;2023-08-12T12:54:19;100410.13;;;25.42;71.29
72262;BME280;60173;52.112;8.648;2023-08-12T12:56:45;100419.63;;;25.44;72.19
72262;BME280;60173;52.112;8.648;2023-08-12T12:59:12;100418.47;;;25.38;73.29
72262;BME280;60173;52.112;8.648;2023-08-12T13:01:38;100420.84;;;25.33;71.12
72262;BME280;60173;52.112;8.648;2023-08-12T13:04:05;100418.09;;;25.11;72.07
72262;BME280;60173;52.112;8.648;2023-08-12T13:06:31;100421.25;;;24.85;73.84
72262;BME280;60173;52.112;8.648;2023-08-12T13:08:57;100422.00;;;24.49;75.58